Time;durP1;ratioP1;P1;durP2;ratioP2;P2;SDS_P1;SDS_P2;PMS_P1;PMS_P2;Temp;Humidity;BMP_temperature;BMP_pressure;BME280_temperature;BME280_humidity;BME280_pressure;Samples;Min_cycle;Max_cycle;Signal;HPM_P1;HPM_P2
2022/11/15 00:00:11;;;;;;;30.67;23.38;;;;;;;;;;5044843;28;20049;-85
2022/11/15 00:02:37;;;;;;;29.98;22.00;;;;;;;;;;5040186;28;20036;-84
2022/11/15 00:05:03;;;;;;;28.60;21.92;;;;;;;;;;5054981;28;20021;-85
2022/11/15 00:07:29;;;;;;;29.20;21.48;;;;;;;;;;5053782;28;20022;-85
2022/11/15 00:09:55;;;;;;;26.63;20.92;;;;;;;;;;5039005;28;20033;-85
2022/11/15 00:12:21;;;;;;;29.98;20.83;;;;;;;;;;5054058;28;20064;-85
2022/11/15 00:14:47;;;;;;;27.52;20.08;;;;;;;;;;5055800;28;20018;-84
2022/11/15 00:17:13;;;;;;;25.05;20.20;;;;;;;;;;5058587;28;20040;-85
2022/11/15 00:19:39;;;;;;;25.95;19.05;;;;;;;;;;5057378;28;20071;-85
2022/11/15 00:22:05;;;;;;;25.05;19.75;;;;;;;;;;5034041;28;20025;-85
2022/11/15 00:24:31;;;;;;;26.92;19.75;;;;;;;;;;5035573;28;20045;-83
2022/11/15 00:26:57;;;;;;;27.77;20.42;;;;;;;;;;5058834;28;20045;-84
2022/11/15 00:29:23;;;;;;;27.42;20.67;;;;;;;;;;5060863;28;20028;-84
2022/11/15 00:31:49;;;;;;;24.38;19.23;;;;;;;;;;5042856;28;20038;-85
2022/11/15 00:34:15;;;;;;;25.38;19.58;;;;;;;;;;5043935;28;20055;-84
2022/11/15 00:36:41;;;;;;;28.42;20.50;;;;;;;;;;5058905;28;20029;-84
2022/11/15 00:39:07;;;;;;;28.27;20.65;;;;;;;;;;5055204;28;20082;-84
2022/11/15 00:41:33;;;;;;;28.65;21.83;;;;;;;;;;5039339;28;20037;-85
2022/11/15 00:43:59;;;;;;;30.20;23.38;;;;;;;;;;5025253;28;20050;-85
2022/11/15 00:46:25;;;;;;;29.42;23.85;;;;;;;;;;5041379;28;20053;-84
2022/11/15 00:48:51;;;;;;;29.67;23.10;;;;;;;;;;5038134;28;20164;-85
2022/11/15 00:51:17;;;;;;;28.27;22.60;;;;;;;;;;5039713;28;20108;-84
2022/11/15 00:53:43;;;;;;;27.13;22.02;;;;;;;;;;5038003;28;20199;-85
2022/11/15 00:56:09;;;;;;;26.05;20.45;;;;;;;;;;5020766;28;20053;-85
2022/11/15 00:58:35;;;;;;;26.95;21.60;;;;;;;;;;5035764;28;20030;-85
2022/11/15 01:01:08;;;;;;;28.90;21.48;;;;;;;;;;5053307;28;20033;-85
2022/11/15 01:03:35;;;;;;;27.90;21.90;;;;;;;;;;5035426;28;20038;-85
2022/11/15 01:06:01;;;;;;;31.00;22.25;;;;;;;;;;5032058;28;20133;-85
2022/11/15 01:08:27;;;;;;;29.63;23.08;;;;;;;;;;5035103;28;20053;-85
2022/11/15 01:10:53;;;;;;;30.63;22.75;;;;;;;;;;5050353;28;20052;-84
2022/11/15 01:13:19;;;;;;;27.02;21.88;;;;;;;;;;5049197;28;20068;-85
2022/11/15 01:15:45;;;;;;;31.27;23.30;;;;;;;;;;5050643;28;20065;-85
2022/11/15 01:18:11;;;;;;;32.30;24.20;;;;;;;;;;5036678;28;20096;-85
2022/11/15 01:20:41;;;;;;;29.60;22.70;;;;;;;;;;5056068;28;20048;-84
2022/11/15 01:23:07;;;;;;;31.70;23.40;;;;;;;;;;5049343;28;20037;-85
2022/11/15 01:25:33;;;;;;;29.33;21.92;;;;;;;;;;5053801;28;20045;-85
2022/11/15 01:27:59;;;;;;;28.67;21.02;;;;;;;;;;5051941;28;20033;-85
2022/11/15 01:30:25;;;;;;;30.35;23.02;;;;;;;;;;5032477;28;20080;-85
2022/11/15 01:32:51;;;;;;;29.88;22.17;;;;;;;;;;5047666;28;20041;-85
2022/11/15 01:35:17;;;;;;;28.92;21.67;;;;;;;;;;5046022;28;20076;-84
2022/11/15 01:37:43;;;;;;;33.28;22.27;;;;;;;;;;5030158;28;20412;-84
2022/11/15 01:40:09;;;;;;;28.67;21.75;;;;;;;;;;5047454;28;20064;-84
2022/11/15 01:42:35;;;;;;;31.08;21.85;;;;;;;;;;5047010;28;20045;-84
2022/11/15 01:45:01;;;;;;;30.38;22.88;;;;;;;;;;5039296;28;20101;-84
2022/11/15 01:47:41;;;;;;;29.05;21.45;;;;;;;;;;5042562;28;20038;-85
2022/11/15 01:50:11;;;;;;;28.45;21.85;;;;;;;;;;5046831;28;20048;-85
2022/11/15 01:52:38;;;;;;;31.48;22.73;;;;;;;;;;5049570;28;20048;-85
2022/11/15 01:55:12;;;;;;;31.67;22.27;;;;;;;;;;5048750;28;20045;-85
2022/11/15 01:57:38;;;;;;;32.28;22.05;;;;;;;;;;5035950;28;20060;-85
2022/11/15 02:00:05;;;;;;;29.23;21.65;;;;;;;;;;5045255;28;20068;-84
2022/11/15 02:02:32;;;;;;;31.23;22.10;;;;;;;;;;5050389;28;20076;-84
2022/11/15 02:04:57;;;;;;;30.00;21.70;;;;;;;;;;5051688;28;20042;-84
2022/11/15 02:07:23;;;;;;;30.80;20.98;;;;;;;;;;5050955;28;20042;-84
2022/11/15 02:09:50;;;;;;;31.00;21.38;;;;;;;;;;5034085;28;20033;-85
2022/11/15 02:12:19;;;;;;;29.10;22.35;;;;;;;;;;5054108;28;20045;-85
2022/11/15 02:14:48;;;;;;;28.65;21.48;;;;;;;;;;5037020;28;20046;-84
2022/11/15 02:17:27;;;;;;;30.23;22.00;;;;;;;;;;5049442;28;20601;-85
2022/11/15 02:20:12;;;;;;;30.15;22.02;;;;;;;;;;5054089;28;20044;-84
2022/11/15 02:22:40;;;;;;;29.27;20.55;;;;;;;;;;5056118;28;20109;-84
2022/11/15 02:25:19;;;;;;;27.77;20.88;;;;;;;;;;5055043;28;20037;-85
2022/11/15 02:28:00;;;;;;;29.52;21.45;;;;;;;;;;5040188;28;20033;-84
2022/11/15 02:30:26;;;;;;;38.35;21.23;;;;;;;;;;5054647;28;20044;-84
2022/11/15 02:33:01;;;;;;;31.15;20.75;;;;;;;;;;5021568;28;20053;-84
2022/11/15 02:35:40;;;;;;;34.40;22.50;;;;;;;;;;5055432;28;20041;-84
2022/11/15 02:38:21;;;;;;;30.88;20.92;;;;;;;;;;5034819;28;20049;-85
2022/11/15 02:41:02;;;;;;;32.17;20.83;;;;;;;;;;5051178;28;20077;-85
2022/11/15 02:43:56;;;;;;;32.50;20.65;;;;;;;;;;5055313;28;20048;-85
2022/11/15 02:49:17;;;;;;;37.00;22.27;;;;;;;;;;5048884;28;20033;-84
2022/11/15 02:51:45;;;;;;;35.60;22.00;;;;;;;;;;5056912;28;20038;-84
2022/11/15 02:54:16;;;;;;;34.97;22.60;;;;;;;;;;5055565;28;20053;-85
2022/11/15 02:56:43;;;;;;;38.30;22.67;;;;;;;;;;5037535;28;20045;-84
2022/11/15 02:59:16;;;;;;;39.88;23.05;;;;;;;;;;5054098;28;20050;-84
2022/11/15 03:02:01;;;;;;;36.28;23.05;;;;;;;;;;5036924;28;20101;-84
2022/11/15 03:04:37;;;;;;;34.25;22.02;;;;;;;;;;5032530;28;20452;-84
2022/11/15 03:07:03;;;;;;;35.65;22.98;;;;;;;;;;5034919;28;20053;-85
2022/11/15 03:09:29;;;;;;;37.97;22.25;;;;;;;;;;5053247;28;20089;-84
2022/11/15 03:12:12;;;;;;;34.30;22.50;;;;;;;;;;5050320;28;20048;-84
2022/11/15 03:14:43;;;;;;;35.97;22.48;;;;;;;;;;5047931;28;20052;-85
2022/11/15 03:17:16;;;;;;;33.22;22.08;;;;;;;;;;5054674;28;20049;-85
2022/11/15 03:19:50;;;;;;;37.17;23.33;;;;;;;;;;5054578;28;20050;-85
2022/11/15 03:22:20;;;;;;;39.28;23.38;;;;;;;;;;5052086;28;20088;-85
2022/11/15 03:24:49;;;;;;;36.35;23.02;;;;;;;;;;5024244;28;20102;-85
2022/11/15 03:27:16;;;;;;;41.58;23.50;;;;;;;;;;5042358;28;20038;-85
2022/11/15 03:29:45;;;;;;;37.22;23.98;;;;;;;;;;5052896;28;20033;-84
2022/11/15 03:32:17;;;;;;;40.55;24.58;;;;;;;;;;5057405;28;20052;-84
2022/11/15 03:34:46;;;;;;;35.78;24.25;;;;;;;;;;5061576;28;20025;-84
2022/11/15 03:37:13;;;;;;;38.45;23.67;;;;;;;;;;5059740;28;20049;-84
2022/11/15 03:39:40;;;;;;;44.03;24.42;;;;;;;;;;5060262;28;20029;-84
2022/11/15 03:42:08;;;;;;;42.78;25.25;;;;;;;;;;5060628;28;20033;-84
2022/11/15 03:44:38;;;;;;;46.33;25.83;;;;;;;;;;5044189;28;20045;-84
2022/11/15 03:47:07;;;;;;;41.33;25.27;;;;;;;;;;5058815;28;20069;-84
2022/11/15 03:49:34;;;;;;;39.08;24.55;;;;;;;;;;5056899;28;20068;-85
2022/11/15 03:52:01;;;;;;;37.88;24.55;;;;;;;;;;5051296;28;20033;-85
2022/11/15 03:54:27;;;;;;;40.70;25.17;;;;;;;;;;5059932;28;20042;-85
2022/11/15 03:56:53;;;;;;;40.90;24.83;;;;;;;;;;5059447;28;20033;-85
2022/11/15 03:59:19;;;;;;;40.53;25.58;;;;;;;;;;5041947;28;20034;-84
2022/11/15 04:01:45;;;;;;;40.03;26.13;;;;;;;;;;5058020;28;20061;-85
2022/11/15 04:04:12;;;;;;;44.30;26.42;;;;;;;;;;5040556;28;20041;-84
2022/11/15 04:06:38;;;;;;;44.72;26.23;;;;;;;;;;5059246;28;20029;-84
2022/11/15 04:09:04;;;;;;;43.45;26.95;;;;;;;;;;5057677;28;20056;-84
2022/11/15 04:11:30;;;;;;;42.63;27.45;;;;;;;;;;5040261;28;20049;-84
2022/11/15 04:13:56;;;;;;;45.13;28.10;;;;;;;;;;5023409;28;20049;-84
2022/11/15 04:16:22;;;;;;;44.17;27.65;;;;;;;;;;5022496;28;20061;-85
2022/11/15 04:24:11;;;;;;;52.60;28.95;;;;;;;;;;5023225;28;20061;-85
2022/11/15 04:24:19;;;;;;;56.72;30.73;;;;;;;;;;5046564;28;20042;-85
2022/11/15 04:26:45;;;;;;;58.85;32.15;;;;;;;;;;5045780;28;20041;-84
2022/11/15 04:31:56;;;;;;;68.18;33.85;;;;;;;;;;5031054;28;20053;-85
2022/11/15 04:34:22;;;;;;;67.47;34.35;;;;;;;;;;5030885;28;20045;-85
2022/11/15 04:39:33;;;;;;;60.10;33.13;;;;;;;;;;5051351;28;20049;-84
2022/11/15 04:41:59;;;;;;;74.22;37.15;;;;;;;;;;5053984;28;20049;-84
2022/11/15 04:44:25;;;;;;;76.72;36.75;;;;;;;;;;5034134;28;20050;-84
2022/11/15 04:46:51;;;;;;;74.38;37.85;;;;;;;;;;5052495;28;20145;-84
2022/11/15 04:49:17;;;;;;;89.70;39.28;;;;;;;;;;5051787;28;20029;-84
2022/11/15 04:51:43;;;;;;;80.25;37.80;;;;;;;;;;5049314;28;20042;-84
2022/11/15 04:54:09;;;;;;;86.95;38.88;;;;;;;;;;5053035;28;20037;-83
2022/11/15 04:56:35;;;;;;;71.60;37.53;;;;;;;;;;5048826;28;20034;-82
2022/11/15 04:59:00;;;;;;;80.45;38.28;;;;;;;;;;5036373;28;20508;-82
2022/11/15 05:01:26;;;;;;;81.00;37.28;;;;;;;;;;5038199;28;20045;-83
2022/11/15 05:06:37;;;;;;;83.60;39.28;;;;;;;;;;5039204;28;20041;-85
2022/11/15 05:09:03;;;;;;;72.13;37.38;;;;;;;;;;5042520;28;20048;-85
2022/11/15 05:11:29;;;;;;;70.55;36.92;;;;;;;;;;5023962;28;20045;-85
2022/11/15 05:13:55;;;;;;;67.30;36.97;;;;;;;;;;5046717;28;20044;-85
2022/11/15 05:16:21;;;;;;;75.40;36.85;;;;;;;;;;5047639;28;20029;-85
2022/11/15 05:18:47;;;;;;;70.75;37.47;;;;;;;;;;5052185;28;20535;-84
2022/11/15 05:21:14;;;;;;;61.90;34.80;;;;;;;;;;5053153;28;20110;-85
2022/11/15 05:23:41;;;;;;;73.35;37.35;;;;;;;;;;5037197;28;20068;-84
2022/11/15 05:26:08;;;;;;;73.85;37.13;;;;;;;;;;5051077;28;20041;-85
2022/11/15 05:28:34;;;;;;;65.10;36.47;;;;;;;;;;5051995;28;20431;-85
2022/11/15 05:31:01;;;;;;;65.88;35.90;;;;;;;;;;5042823;28;20072;-85
2022/11/15 05:33:27;;;;;;;67.28;35.85;;;;;;;;;;5031573;28;20092;-84
2022/11/15 05:36:00;;;;;;;63.60;35.55;;;;;;;;;;5030335;28;20044;-85
2022/11/15 05:38:26;;;;;;;68.03;36.00;;;;;;;;;;5048569;28;20041;-85
2022/11/15 05:40:53;;;;;;;69.78;37.05;;;;;;;;;;5048147;28;20042;-84
2022/11/15 05:43:19;;;;;;;69.75;35.15;;;;;;;;;;5050848;28;20072;-85
2022/11/15 05:45:45;;;;;;;60.05;33.35;;;;;;;;;;5033694;28;20053;-85
2022/11/15 05:48:12;;;;;;;61.13;35.45;;;;;;;;;;5043169;28;20067;-85
2022/11/15 05:50:39;;;;;;;66.63;34.35;;;;;;;;;;5048007;28;20056;-84
2022/11/15 05:53:05;;;;;;;55.72;33.83;;;;;;;;;;5049552;28;20464;-84
2022/11/15 05:55:32;;;;;;;55.92;32.45;;;;;;;;;;5043675;28;20060;-85
2022/11/15 05:57:58;;;;;;;56.47;33.72;;;;;;;;;;5045989;28;20041;-85
2022/11/15 06:00:24;;;;;;;51.00;32.03;;;;;;;;;;5029718;28;20046;-84
2022/11/15 06:02:50;;;;;;;51.67;32.45;;;;;;;;;;5038260;28;20025;-84
2022/11/15 06:05:16;;;;;;;53.05;32.08;;;;;;;;;;5056096;28;20014;-85
2022/11/15 06:07:43;;;;;;;53.53;31.92;;;;;;;;;;5051313;28;20052;-85
2022/11/15 06:10:10;;;;;;;50.45;30.77;;;;;;;;;;5019637;28;20058;-85
2022/11/15 06:12:36;;;;;;;50.63;32.00;;;;;;;;;;5046883;28;20051;-85
2022/11/15 06:15:02;;;;;;;55.55;32.63;;;;;;;;;;5024152;28;20038;-85
2022/11/15 06:17:28;;;;;;;53.08;32.13;;;;;;;;;;5048302;28;20061;-85
2022/11/15 06:19:54;;;;;;;49.92;31.52;;;;;;;;;;5034865;28;20053;-85
2022/11/15 06:22:20;;;;;;;55.08;32.60;;;;;;;;;;5029807;28;20041;-85
2022/11/15 06:24:46;;;;;;;54.33;31.90;;;;;;;;;;5030033;28;20038;-85
2022/11/15 06:27:12;;;;;;;55.15;32.33;;;;;;;;;;5025753;28;20061;-85
2022/11/15 06:29:38;;;;;;;54.20;31.92;;;;;;;;;;5050639;28;20059;-85
2022/11/15 06:32:04;;;;;;;53.75;32.80;;;;;;;;;;5033708;28;20101;-85
2022/11/15 06:34:30;;;;;;;50.03;32.20;;;;;;;;;;5031388;28;20116;-85
2022/11/15 06:36:56;;;;;;;52.97;32.60;;;;;;;;;;5044055;28;20046;-85
2022/11/15 06:39:23;;;;;;;48.63;32.38;;;;;;;;;;5049026;28;20068;-85
2022/11/15 06:41:49;;;;;;;51.92;32.35;;;;;;;;;;5032974;28;20057;-85
2022/11/15 06:44:16;;;;;;;52.90;32.97;;;;;;;;;;5033181;28;20052;-86
2022/11/15 06:46:42;;;;;;;54.65;31.33;;;;;;;;;;5046460;28;20042;-85
2022/11/15 06:49:08;;;;;;;52.60;31.70;;;;;;;;;;5049586;28;20056;-85
2022/11/15 06:51:34;;;;;;;52.72;31.73;;;;;;;;;;5030702;28;20055;-84
2022/11/15 06:54:00;;;;;;;47.45;32.55;;;;;;;;;;5052231;28;20068;-85
2022/11/15 06:56:26;;;;;;;51.03;33.22;;;;;;;;;;5046440;28;20061;-85
2022/11/15 06:58:52;;;;;;;52.53;30.75;;;;;;;;;;5049228;28;20046;-84
2022/11/15 07:01:18;;;;;;;55.88;32.92;;;;;;;;;;5019315;28;20049;-82
2022/11/15 07:03:45;;;;;;;50.80;31.85;;;;;;;;;;5034479;28;20041;-84
2022/11/15 07:06:12;;;;;;;50.13;31.65;;;;;;;;;;5012645;28;20063;-84
2022/11/15 07:08:38;;;;;;;48.40;32.00;;;;;;;;;;5014183;28;20052;-85
2022/11/15 07:11:06;;;;;;;51.35;31.80;;;;;;;;;;5017354;28;20045;-84
2022/11/15 07:13:32;;;;;;;56.80;31.25;;;;;;;;;;5024654;28;20065;-85
2022/11/15 07:15:59;;;;;;;50.47;31.65;;;;;;;;;;5026905;28;20124;-85
2022/11/15 07:18:27;;;;;;;50.85;31.92;;;;;;;;;;5042416;28;20069;-84
2022/11/15 07:20:53;;;;;;;48.22;31.10;;;;;;;;;;5034437;28;20400;-84
2022/11/15 07:23:19;;;;;;;47.88;31.25;;;;;;;;;;5038049;28;20081;-83
2022/11/15 07:25:45;;;;;;;47.20;29.77;;;;;;;;;;5037982;28;20073;-84
2022/11/15 07:28:11;;;;;;;43.58;28.70;;;;;;;;;;5025216;28;20042;-84
2022/11/15 07:30:37;;;;;;;40.95;28.15;;;;;;;;;;5043287;28;20043;-84
2022/11/15 07:33:03;;;;;;;45.08;28.85;;;;;;;;;;5050270;28;20037;-84
2022/11/15 07:35:29;;;;;;;42.67;28.02;;;;;;;;;;5045872;28;20101;-84
2022/11/15 07:37:55;;;;;;;44.03;28.00;;;;;;;;;;5047230;28;20084;-85
2022/11/15 07:40:21;;;;;;;41.75;28.08;;;;;;;;;;5022184;28;20057;-85
2022/11/15 07:42:53;;;;;;;42.28;28.60;;;;;;;;;;5041839;28;20042;-84
2022/11/15 07:45:20;;;;;;;41.15;27.73;;;;;;;;;;5043888;28;20041;-85
2022/11/15 07:47:47;;;;;;;42.55;28.02;;;;;;;;;;5049848;28;20049;-84
2022/11/15 07:50:13;;;;;;;40.63;27.27;;;;;;;;;;5048347;28;20476;-84
2022/11/15 07:52:39;;;;;;;38.28;27.17;;;;;;;;;;5028354;28;20125;-84
2022/11/15 07:55:05;;;;;;;40.92;27.42;;;;;;;;;;5051295;28;20073;-84
2022/11/15 07:57:31;;;;;;;40.30;26.75;;;;;;;;;;5032924;28;20054;-84
2022/11/15 07:59:57;;;;;;;37.88;27.52;;;;;;;;;;5050942;28;20117;-85
2022/11/15 08:02:23;;;;;;;39.95;27.92;;;;;;;;;;5036549;28;20052;-85
2022/11/15 08:04:49;;;;;;;42.28;27.60;;;;;;;;;;5047917;28;20472;-84
2022/11/15 08:07:15;;;;;;;36.50;26.25;;;;;;;;;;5029078;28;20063;-84
2022/11/15 08:09:41;;;;;;;37.03;27.98;;;;;;;;;;5050507;28;20074;-84
2022/11/15 08:12:07;;;;;;;39.90;27.40;;;;;;;;;;5045311;28;20033;-84
2022/11/15 08:14:33;;;;;;;39.92;27.40;;;;;;;;;;5036755;28;20049;-84
2022/11/15 08:16:59;;;;;;;40.17;26.95;;;;;;;;;;5025372;28;20053;-85
2022/11/15 08:19:25;;;;;;;39.78;27.38;;;;;;;;;;5039659;28;20041;-84
2022/11/15 08:21:51;;;;;;;35.17;26.40;;;;;;;;;;5059423;28;20041;-85
2022/11/15 08:24:17;;;;;;;41.40;28.67;;;;;;;;;;5051603;28;20049;-85
2022/11/15 08:26:44;;;;;;;35.35;25.88;;;;;;;;;;5057456;28;20050;-85
2022/11/15 08:29:10;;;;;;;37.78;27.23;;;;;;;;;;5041654;28;20061;-85
2022/11/15 08:31:36;;;;;;;40.67;27.13;;;;;;;;;;5041510;28;20189;-85
2022/11/15 08:34:06;;;;;;;41.10;27.77;;;;;;;;;;5058999;28;20021;-85
2022/11/15 08:36:32;;;;;;;38.88;27.42;;;;;;;;;;5022518;28;20131;-84
2022/11/15 08:38:58;;;;;;;40.20;28.02;;;;;;;;;;5032494;28;20049;-84
2022/11/15 08:41:31;;;;;;;39.17;27.52;;;;;;;;;;5027969;28;20049;-85
2022/11/15 08:43:57;;;;;;;38.83;27.83;;;;;;;;;;5035058;28;20045;-85
2022/11/15 08:46:23;;;;;;;39.53;27.58;;;;;;;;;;5038725;28;20120;-85
2022/11/15 08:48:49;;;;;;;38.50;28.00;;;;;;;;;;5048667;28;20041;-85
2022/11/15 08:51:15;;;;;;;37.33;27.45;;;;;;;;;;5050651;28;20041;-85
2022/11/15 08:53:42;;;;;;;42.50;27.65;;;;;;;;;;5056068;28;20030;-84
2022/11/15 08:56:09;;;;;;;39.47;27.95;;;;;;;;;;5045692;28;20052;-85
2022/11/15 08:58:36;;;;;;;39.72;27.48;;;;;;;;;;5011845;28;20378;-85
2022/11/15 09:01:02;;;;;;;38.70;27.42;;;;;;;;;;5049961;28;20037;-85
2022/11/15 09:03:28;;;;;;;40.85;28.52;;;;;;;;;;5036765;28;20043;-85
2022/11/15 09:05:55;;;;;;;40.53;28.95;;;;;;;;;;5052064;28;20087;-84
2022/11/15 09:08:21;;;;;;;38.50;27.85;;;;;;;;;;5057389;28;20049;-84
2022/11/15 09:10:47;;;;;;;37.95;27.30;;;;;;;;;;5037945;28;20060;-85
2022/11/15 09:13:13;;;;;;;37.80;28.45;;;;;;;;;;5041414;28;20060;-84
2022/11/15 09:15:39;;;;;;;37.13;26.92;;;;;;;;;;5041420;28;20040;-84
2022/11/15 09:18:06;;;;;;;35.55;27.25;;;;;;;;;;5057843;28;20080;-85
2022/11/15 09:20:32;;;;;;;39.20;28.00;;;;;;;;;;5058967;28;20034;-85
2022/11/15 09:23:01;;;;;;;40.90;28.02;;;;;;;;;;5057480;28;20040;-84
2022/11/15 09:25:28;;;;;;;36.28;28.02;;;;;;;;;;5053023;28;20056;-84
2022/11/15 09:27:54;;;;;;;39.13;28.30;;;;;;;;;;5058093;28;20029;-85
2022/11/15 09:30:20;;;;;;;40.38;29.38;;;;;;;;;;5039588;28;20037;-84
2022/11/15 09:32:46;;;;;;;36.63;26.75;;;;;;;;;;5058485;28;20072;-84
2022/11/15 09:35:12;;;;;;;39.72;28.85;;;;;;;;;;5041643;28;20045;-84
2022/11/15 09:37:38;;;;;;;36.58;28.58;;;;;;;;;;5056659;28;20052;-85
2022/11/15 09:40:04;;;;;;;38.92;28.48;;;;;;;;;;5058662;28;20030;-85
2022/11/15 09:42:33;;;;;;;39.83;29.17;;;;;;;;;;5058676;28;20030;-85
2022/11/15 09:45:05;;;;;;;38.17;30.00;;;;;;;;;;5057015;28;20123;-84
2022/11/15 09:47:47;;;;;;;38.65;29.02;;;;;;;;;;5038653;28;20025;-84
2022/11/15 09:50:12;;;;;;;;;;;;;;;;;;5058142;28;20031;-84
2022/11/15 09:52:42;;;;;;;40.95;29.00;;;;;;;;;;5039275;28;19912;-84
2022/11/15 09:55:10;;;;;;;38.15;28.95;;;;;;;;;;5058382;28;20052;-84
2022/11/15 09:57:42;;;;;;;37.33;28.27;;;;;;;;;;5058019;28;20053;-84
2022/11/15 10:00:12;;;;;;;37.15;28.58;;;;;;;;;;5056958;28;20029;-84
2022/11/15 10:02:41;;;;;;;37.55;27.42;;;;;;;;;;5054515;28;20045;-85
2022/11/15 10:05:11;;;;;;;35.50;27.58;;;;;;;;;;5035373;28;20057;-85
2022/11/15 10:07:56;;;;;;;36.13;28.70;;;;;;;;;;5038639;28;20049;-84
2022/11/15 10:10:22;;;;;;;35.75;27.92;;;;;;;;;;5052611;28;20045;-85
2022/11/15 10:12:49;;;;;;;33.63;27.17;;;;;;;;;;5036288;28;20056;-84
2022/11/15 10:15:16;;;;;;;35.35;27.33;;;;;;;;;;5028709;28;20049;-85
2022/11/15 10:18:00;;;;;;;37.08;27.75;;;;;;;;;;5048160;28;20068;-84
2022/11/15 10:20:28;;;;;;;38.20;27.45;;;;;;;;;;5051608;28;20117;-85
2022/11/15 10:22:56;;;;;;;34.85;26.77;;;;;;;;;;5028349;28;20084;-85
2022/11/15 10:25:22;;;;;;;36.38;27.10;;;;;;;;;;5024590;28;20123;-85
2022/11/15 10:27:56;;;;;;;35.35;23.75;;;;;;;;;;5044833;28;20077;-85
2022/11/15 10:30:23;;;;;;;30.00;23.92;;;;;;;;;;5045285;28;20045;-85
2022/11/15 10:32:49;;;;;;;30.40;23.38;;;;;;;;;;5031485;28;20041;-85
2022/11/15 10:35:24;;;;;;;28.75;22.50;;;;;;;;;;5053960;28;20103;-84
2022/11/15 10:37:50;;;;;;;31.45;22.67;;;;;;;;;;5048386;28;20041;-84
2022/11/15 10:40:18;;;;;;;27.23;21.48;;;;;;;;;;5053743;28;20072;-84
2022/11/15 10:42:44;;;;;;;26.30;20.27;;;;;;;;;;5054599;28;20072;-85
2022/11/15 10:45:30;;;;;;;27.30;20.23;;;;;;;;;;5047486;28;20105;-85
2022/11/15 10:48:12;;;;;;;27.88;20.63;;;;;;;;;;5034819;28;20077;-85
2022/11/15 10:50:38;;;;;;;;;;;;;;;;;;5049029;28;20094;-84
2022/11/15 10:53:04;;;;;;;26.40;19.80;;;;;;;;;;5032053;28;20016;-84
2022/11/15 10:55:32;;;;;;;23.17;20.63;;;;;;;;;;5057428;28;20029;-84
2022/11/15 10:58:04;;;;;;;26.52;20.52;;;;;;;;;;5055794;28;20029;-85
2022/11/15 11:00:32;;;;;;;26.13;21.25;;;;;;;;;;5052345;28;20052;-84
2022/11/15 11:03:02;;;;;;;28.80;21.52;;;;;;;;;;5051814;28;20022;-85
2022/11/15 11:05:33;;;;;;;30.13;23.17;;;;;;;;;;5026835;28;20057;-84
2022/11/15 11:08:04;;;;;;;26.10;22.63;;;;;;;;;;5042164;28;20049;-85
2022/11/15 11:10:30;;;;;;;34.58;30.27;;;;;;;;;;5037707;28;20041;-85
2022/11/15 11:12:56;;;;;;;27.50;23.33;;;;;;;;;;5030890;28;20041;-84
2022/11/15 11:15:25;;;;;;;26.65;22.67;;;;;;;;;;5055773;28;20025;-85
2022/11/15 11:18:09;;;;;;;23.83;21.08;;;;;;;;;;5055228;28;20106;-85
2022/11/15 11:20:35;;;;;;;18.63;15.65;;;;;;;;;;5050654;28;20056;-85
2022/11/15 11:23:01;;;;;;;36.50;32.78;;;;;;;;;;5053232;28;20101;-85
2022/11/15 11:25:30;;;;;;;21.73;17.75;;;;;;;;;;5055229;28;20049;-85
2022/11/15 11:28:21;;;;;;;17.92;13.52;;;;;;;;;;5055973;28;20064;-85
2022/11/15 11:31:05;;;;;;;16.90;13.50;;;;;;;;;;5034904;28;20053;-85
2022/11/15 11:33:42;;;;;;;16.10;12.25;;;;;;;;;;5039260;28;20026;-85
2022/11/15 11:36:11;;;;;;;15.23;11.85;;;;;;;;;;5054361;28;20025;-85
2022/11/15 11:38:56;;;;;;;13.88;10.07;;;;;;;;;;5049227;28;20060;-85
2022/11/15 11:41:44;;;;;;;10.82;6.32;;;;;;;;;;5052028;28;20091;-85
2022/11/15 11:44:28;;;;;;;11.65;6.68;;;;;;;;;;5041542;28;20042;-85
2022/11/15 11:46:56;;;;;;;10.55;6.18;;;;;;;;;;5031239;28;20045;-85
2022/11/15 11:49:27;;;;;;;8.50;5.22;;;;;;;;;;5048469;28;20054;-85
2022/11/15 11:51:53;;;;;;;7.63;4.70;;;;;;;;;;5034021;28;20045;-85
2022/11/15 11:54:19;;;;;;;8.35;5.07;;;;;;;;;;5034888;28;20084;-84
2022/11/15 11:56:45;;;;;;;9.05;5.80;;;;;;;;;;5055383;28;20034;-85
2022/11/15 11:59:30;;;;;;;10.77;5.47;;;;;;;;;;5057610;28;20042;-85
2022/11/15 12:01:57;;;;;;;7.63;4.97;;;;;;;;;;5059555;28;20041;-85
2022/11/15 12:04:30;;;;;;;9.38;5.57;;;;;;;;;;5024141;28;20033;-85
2022/11/15 12:07:08;;;;;;;8.70;5.63;;;;;;;;;;5039897;28;20037;-85
2022/11/15 12:09:44;;;;;;;9.98;5.55;;;;;;;;;;5058459;28;20025;-85
2022/11/15 12:12:13;;;;;;;9.48;6.30;;;;;;;;;;5039401;28;20103;-85
2022/11/15 12:14:43;;;;;;;10.15;5.60;;;;;;;;;;5056886;28;20021;-84
2022/11/15 12:17:11;;;;;;;8.80;5.68;;;;;;;;;;5041619;28;20138;-85
2022/11/15 12:19:37;;;;;;;25.83;16.92;;;;;;;;;;5042912;28;20042;-85
2022/11/15 12:22:07;;;;;;;17.55;11.55;;;;;;;;;;5059097;28;20037;-86
2022/11/15 12:24:37;;;;;;;17.70;11.68;;;;;;;;;;5041625;28;20035;-85
2022/11/15 12:27:24;;;;;;;10.25;6.38;;;;;;;;;;5060119;28;20022;-85
2022/11/15 12:29:52;;;;;;;14.65;7.70;;;;;;;;;;5022299;28;20101;-85
2022/11/15 12:32:37;;;;;;;10.05;5.95;;;;;;;;;;5037180;28;20101;-85
2022/11/15 12:35:05;;;;;;;8.73;4.60;;;;;;;;;;5034276;28;20056;-84
2022/11/15 12:37:42;;;;;;;7.78;4.13;;;;;;;;;;5038036;28;20048;-84
2022/11/15 12:40:18;;;;;;;7.35;3.80;;;;;;;;;;5033784;28;20063;-84
2022/11/15 12:43:07;;;;;;;9.30;3.72;;;;;;;;;;5037480;28;20036;-85
2022/11/15 12:45:37;;;;;;;8.13;3.58;;;;;;;;;;4983185;28;20057;-84
2022/11/15 12:48:18;;;;;;;6.67;2.80;;;;;;;;;;4955483;28;20070;-85
2022/11/15 12:50:53;;;;;;;7.10;3.35;;;;;;;;;;4970335;29;20157;-85
2022/11/15 12:53:25;;;;;;;7.82;3.33;;;;;;;;;;4960616;29;20035;-85
2022/11/15 12:56:10;;;;;;;7.88;3.40;;;;;;;;;;4976963;28;20047;-85
2022/11/15 12:58:42;;;;;;;8.77;3.10;;;;;;;;;;4977687;28;20139;-85
2022/11/15 13:01:08;;;;;;;6.93;3.17;;;;;;;;;;4963776;28;20038;-84
2022/11/15 13:03:35;;;;;;;7.55;3.22;;;;;;;;;;4979485;28;20090;-84
2022/11/15 13:06:03;;;;;;;7.55;3.47;;;;;;;;;;4979706;28;20035;-85
2022/11/15 13:08:36;;;;;;;10.57;3.75;;;;;;;;;;4977670;28;20052;-84
2022/11/15 13:11:21;;;;;;;8.50;3.60;;;;;;;;;;4963057;29;20093;-84
2022/11/15 13:13:47;;;;;;;7.88;3.42;;;;;;;;;;4983377;28;20031;-85
2022/11/15 13:16:18;;;;;;;7.63;3.20;;;;;;;;;;4987275;28;20079;-84
2022/11/15 13:18:53;;;;;;;7.40;2.88;;;;;;;;;;4960324;29;20047;-84
2022/11/15 13:24:10;;;;;;;6.57;2.80;;;;;;;;;;5053628;28;20054;-83
2022/11/15 13:26:38;;;;;;;7.03;3.00;;;;;;;;;;5059089;28;20041;-85
2022/11/15 13:29:05;;;;;;;7.90;2.70;;;;;;;;;;5057243;28;20038;-85
2022/11/15 13:31:40;;;;;;;6.95;2.67;;;;;;;;;;5058686;28;20048;-85
2022/11/15 13:34:28;;;;;;;6.15;2.15;;;;;;;;;;5058329;28;20030;-85
2022/11/15 13:36:54;;;;;;;7.18;2.53;;;;;;;;;;5058578;28;20039;-85
2022/11/15 13:39:26;;;;;;;6.53;2.55;;;;;;;;;;5039296;28;20059;-85
2022/11/15 13:41:52;;;;;;;5.65;2.30;;;;;;;;;;5057256;28;20029;-85
2022/11/15 13:44:23;;;;;;;5.25;2.13;;;;;;;;;;5036782;28;20048;-85
2022/11/15 13:47:01;;;;;;;6.22;2.47;;;;;;;;;;5039068;28;20052;-84
2022/11/15 13:49:31;;;;;;;5.60;2.30;;;;;;;;;;5049808;28;20050;-85
2022/11/15 13:51:58;;;;;;;5.13;2.45;;;;;;;;;;5049682;28;20047;-85
2022/11/15 13:54:26;;;;;;;7.57;2.72;;;;;;;;;;5052371;28;20025;-84
2022/11/15 13:56:55;;;;;;;5.82;2.20;;;;;;;;;;5041583;28;20105;-84
2022/11/15 13:59:29;;;;;;;6.88;2.35;;;;;;;;;;5033933;28;20045;-84
2022/11/15 14:01:57;;;;;;;8.02;2.78;;;;;;;;;;5037716;28;20029;-84
2022/11/15 14:04:24;;;;;;;5.93;2.80;;;;;;;;;;5049585;28;20057;-84
2022/11/15 14:06:55;;;;;;;6.65;2.70;;;;;;;;;;5056675;28;20028;-84
2022/11/15 14:09:27;;;;;;;6.25;2.45;;;;;;;;;;5056433;28;20053;-84
2022/11/15 14:11:54;;;;;;;5.55;2.70;;;;;;;;;;5055363;28;20044;-84
2022/11/15 14:14:24;;;;;;;8.32;3.20;;;;;;;;;;5053433;28;20041;-84
2022/11/15 14:16:52;;;;;;;5.43;2.97;;;;;;;;;;5056169;28;20069;-84
2022/11/15 14:19:20;;;;;;;6.53;3.10;;;;;;;;;;5055035;28;20068;-84
2022/11/15 14:22:07;;;;;;;6.03;2.92;;;;;;;;;;5037447;28;20044;-84
2022/11/15 14:24:33;;;;;;;7.75;3.10;;;;;;;;;;5041931;28;20034;-84
2022/11/15 14:27:15;;;;;;;6.18;3.65;;;;;;;;;;5057530;28;20022;-84
2022/11/15 14:29:41;;;;;;;6.65;3.45;;;;;;;;;;5056394;28;20026;-84
2022/11/15 14:32:19;;;;;;;9.13;3.35;;;;;;;;;;5030526;28;20056;-84
2022/11/15 14:34:45;;;;;;;6.47;3.58;;;;;;;;;;5044452;28;20056;-84
2022/11/15 14:37:23;;;;;;;8.02;4.05;;;;;;;;;;5053402;28;20045;-84
2022/11/15 14:39:49;;;;;;;6.18;3.80;;;;;;;;;;5043079;28;21276;-83
2022/11/15 14:42:19;;;;;;;6.53;3.83;;;;;;;;;;5051158;28;20048;-84
2022/11/15 14:44:45;;;;;;;7.70;3.85;;;;;;;;;;5026524;28;20150;-83
2022/11/15 14:47:11;;;;;;;7.10;3.88;;;;;;;;;;5026558;28;20050;-83
2022/11/15 14:49:37;;;;;;;7.82;3.97;;;;;;;;;;5046451;28;20049;-83